createdAt,value
2019-02-23T00:01:30.963Z,11.30
2019-02-23T00:03:59.102Z,10.00
2019-02-23T00:06:30.114Z,10.90
2019-02-23T00:08:56.995Z,10.50
2019-02-23T00:11:25.457Z,11.17
2019-02-23T00:13:53.516Z,11.13
2019-02-23T00:16:21.602Z,11.07
2019-02-23T00:18:49.649Z,10.27
2019-02-23T00:21:17.705Z,9.70
2019-02-23T00:23:45.762Z,10.10
2019-02-23T00:26:13.805Z,12.10
2019-02-23T00:28:41.874Z,11.80
2019-02-23T00:31:09.914Z,9.97
2019-02-23T00:33:37.974Z,11.28
2019-02-23T00:36:06.018Z,10.23
2019-02-23T00:38:34.072Z,14.63
2019-02-23T00:41:02.139Z,10.47
2019-02-23T00:43:30.197Z,12.07
2019-02-23T00:45:58.230Z,10.30
2019-02-23T00:48:26.291Z,10.30
2019-02-23T00:50:54.362Z,10.80
2019-02-23T00:53:22.431Z,12.43
2019-02-23T00:55:50.478Z,11.97
2019-02-23T00:58:18.542Z,10.57
2019-02-23T01:00:46.602Z,10.47
2019-02-23T01:03:14.659Z,12.50
2019-02-23T01:05:42.738Z,12.97
2019-02-23T01:08:10.783Z,11.70
2019-02-23T01:10:38.830Z,11.57
2019-02-23T01:13:06.893Z,11.70
2019-02-23T01:15:34.946Z,12.13
2019-02-23T01:18:03.042Z,13.10
2019-02-23T01:20:31.278Z,10.97
2019-02-23T01:22:59.324Z,12.27
2019-02-23T01:25:27.374Z,10.83
2019-02-23T01:27:55.466Z,11.87
2019-02-23T01:30:23.509Z,12.60
2019-02-23T01:32:51.558Z,12.20
2019-02-23T01:35:19.654Z,13.40
2019-02-23T01:37:47.698Z,12.90
2019-02-23T01:40:15.758Z,12.13
2019-02-23T01:42:43.811Z,11.90
2019-02-23T01:45:11.942Z,12.43
2019-02-23T01:47:39.995Z,11.40
2019-02-23T01:50:08.048Z,11.57
2019-02-23T01:52:36.139Z,11.67
2019-02-23T01:55:04.854Z,12.43
2019-02-23T01:57:32.919Z,11.83
2019-02-23T02:00:00.964Z,13.27
2019-02-23T02:02:29.027Z,14.07
2019-02-23T02:04:57.085Z,12.77
2019-02-23T02:07:25.124Z,11.97
2019-02-23T02:09:54.030Z,14.40
2019-02-23T02:12:22.165Z,15.37
2019-02-23T02:14:50.225Z,13.33
2019-02-23T02:17:18.281Z,11.33
2019-02-23T02:19:46.342Z,14.63
2019-02-23T02:22:14.427Z,12.97
2019-02-23T02:24:43.039Z,14.17
2019-02-23T02:27:11.067Z,14.70
2019-02-23T02:29:39.115Z,14.80
2019-02-23T02:32:07.179Z,15.40
2019-02-23T02:34:35.222Z,15.07
2019-02-23T02:37:03.297Z,14.10
2019-02-23T02:39:31.356Z,12.53
2019-02-23T02:41:59.410Z,15.23
2019-02-23T02:44:27.470Z,14.80
2019-02-23T02:46:55.514Z,15.47
2019-02-23T02:49:23.582Z,14.33
2019-02-23T02:51:52.384Z,16.30
2019-02-23T02:54:20.437Z,16.17
2019-02-23T02:56:48.470Z,14.93
2019-02-23T02:59:16.526Z,14.50
2019-02-23T03:01:44.578Z,14.63
2019-02-23T03:04:12.632Z,16.83
2019-02-23T03:06:40.682Z,16.10
2019-02-23T03:09:10.594Z,16.67
2019-02-23T03:11:38.647Z,16.27
2019-02-23T03:14:06.709Z,18.43
2019-02-23T03:16:34.831Z,16.37
2019-02-23T03:19:02.890Z,19.43
2019-02-23T03:21:30.955Z,15.80
2019-02-23T03:23:59.008Z,16.13
2019-02-23T03:26:27.069Z,18.73
2019-02-23T03:28:55.118Z,16.27
2019-02-23T03:31:23.169Z,17.63
2019-02-23T03:33:51.254Z,16.77
2019-02-23T03:36:19.310Z,18.03
2019-02-23T03:38:47.360Z,17.00
2019-02-23T03:41:15.426Z,17.53
2019-02-23T03:43:43.479Z,17.07
2019-02-23T03:46:11.567Z,19.63
2019-02-23T03:48:39.622Z,18.47
2019-02-23T03:51:07.667Z,18.70
2019-02-23T03:53:35.735Z,16.83
2019-02-23T03:56:04.293Z,16.03
2019-02-23T03:58:32.410Z,17.97
2019-02-23T04:01:00.465Z,18.87
2019-02-23T04:03:28.528Z,17.33
2019-02-23T04:05:56.578Z,17.87
2019-02-23T04:08:24.658Z,19.30
2019-02-23T04:10:52.702Z,18.73
2019-02-23T04:13:20.756Z,20.20
2019-02-23T04:15:48.826Z,18.57
2019-02-23T04:18:16.876Z,20.40
2019-02-23T04:20:44.931Z,18.63
2019-02-23T04:23:12.998Z,20.77
2019-02-23T04:25:41.052Z,18.70
2019-02-23T04:28:09.139Z,34.73
2019-02-23T04:30:37.208Z,21.93
2019-02-23T04:33:05.261Z,21.43
2019-02-23T04:35:33.319Z,20.43
2019-02-23T04:38:01.367Z,19.77
2019-02-23T04:40:29.440Z,22.07
2019-02-23T04:42:57.494Z,19.50
2019-02-23T04:45:25.547Z,20.00
2019-02-23T04:47:53.615Z,19.27
2019-02-23T04:50:21.671Z,19.07
2019-02-23T04:52:49.735Z,19.57
2019-02-23T04:55:17.812Z,19.67
2019-02-23T04:57:45.856Z,19.60
2019-02-23T05:00:14.487Z,20.20
2019-02-23T05:02:42.552Z,20.73
2019-02-23T05:05:10.670Z,21.43
2019-02-23T05:07:38.763Z,19.87
2019-02-23T05:10:07.686Z,18.90
2019-02-23T05:12:35.750Z,21.23
2019-02-23T05:15:04.271Z,20.23
2019-02-23T05:17:32.325Z,19.57
2019-02-23T05:20:00.388Z,20.73
2019-02-23T05:22:28.470Z,19.67
2019-02-23T05:24:56.543Z,19.03
2019-02-23T05:27:25.453Z,20.63
2019-02-23T05:29:53.651Z,19.63
2019-02-23T05:32:21.706Z,24.17
2019-02-23T05:34:49.758Z,20.27
2019-02-23T05:37:17.846Z,21.53
2019-02-23T05:39:45.895Z,72.23
2019-02-23T05:42:13.955Z,27.37
2019-02-23T05:44:42.006Z,19.23
2019-02-23T05:47:10.147Z,23.77
2019-02-23T05:49:38.239Z,20.37
2019-02-23T05:52:06.295Z,23.57
2019-02-23T05:54:34.422Z,21.87
2019-02-23T05:57:02.485Z,21.03
2019-02-23T05:59:30.529Z,20.13
2019-02-23T06:01:58.590Z,22.27
2019-02-23T06:04:26.643Z,21.70
2019-02-23T06:06:54.704Z,20.87
2019-02-23T06:09:22.758Z,20.33
2019-02-23T06:11:50.822Z,18.93
2019-02-23T06:14:18.899Z,21.57
2019-02-23T06:16:46.971Z,20.60
2019-02-23T06:19:15.043Z,21.43
2019-02-23T06:21:52.863Z,21.90
2019-02-23T06:24:12.887Z,22.80
2019-02-23T06:26:40.922Z,22.13
2019-02-23T06:29:09.017Z,19.93
2019-02-23T06:31:37.075Z,21.97
2019-02-23T06:34:15.602Z,20.20
2019-02-23T06:36:35.199Z,47.67
2019-02-23T06:39:04.193Z,22.30
2019-02-23T06:41:32.286Z,21.13
2019-02-23T06:44:00.342Z,22.37
2019-02-23T06:46:28.428Z,20.77
2019-02-23T06:48:57.249Z,21.17
2019-02-23T06:51:26.183Z,20.80
2019-02-23T06:53:54.310Z,23.93
2019-02-23T06:56:22.384Z,20.27
2019-02-23T06:58:50.450Z,19.30
2019-02-23T07:01:18.578Z,21.43
2019-02-23T07:03:46.639Z,17.70
2019-02-23T07:06:14.702Z,19.67
2019-02-23T07:08:42.758Z,20.10
2019-02-23T07:11:10.832Z,20.03
2019-02-23T07:13:38.899Z,20.40
2019-02-23T07:16:06.954Z,20.07
2019-02-23T07:18:35.018Z,18.53
2019-02-23T07:21:03.074Z,18.70
2019-02-23T07:23:31.126Z,20.33
2019-02-23T07:25:59.194Z,17.10
2019-02-23T07:28:27.247Z,17.37
2019-02-23T07:30:55.306Z,18.27
2019-02-23T07:33:32.450Z,16.83
2019-02-23T07:35:53.134Z,16.97
2019-02-23T07:38:21.218Z,17.10
2019-02-23T07:40:49.267Z,19.60
2019-02-23T07:43:17.317Z,23.93
2019-02-23T07:45:45.374Z,19.23
2019-02-23T07:48:13.429Z,19.03
2019-02-23T07:50:41.546Z,17.43
2019-02-23T07:53:09.621Z,16.40
2019-02-23T07:55:37.682Z,16.83
2019-02-23T07:58:05.831Z,17.40
2019-02-23T08:00:33.866Z,15.90
2019-02-23T08:03:01.911Z,14.47
2019-02-23T08:05:29.983Z,15.10
2019-02-23T08:07:58.035Z,15.93
2019-02-23T08:10:26.098Z,17.57
2019-02-23T08:12:54.159Z,17.17
2019-02-23T08:15:22.211Z,14.87
2019-02-23T08:17:50.254Z,14.07
2019-02-23T08:20:18.341Z,23.27
2019-02-23T08:22:46.495Z,23.07
2019-02-23T08:25:15.006Z,18.73
2019-02-23T08:27:43.086Z,15.07
2019-02-23T08:30:12.375Z,17.20
2019-02-23T08:32:40.429Z,13.70
2019-02-23T08:35:08.676Z,15.83
2019-02-23T08:37:36.722Z,16.60
2019-02-23T08:40:06.547Z,14.60
2019-02-23T08:42:34.681Z,15.03
2019-02-23T08:45:02.732Z,13.77
2019-02-23T08:47:30.799Z,14.17
2019-02-23T08:49:58.976Z,15.53
2019-02-23T08:52:27.023Z,24.67
2019-02-23T08:54:55.070Z,16.47
2019-02-23T08:57:23.134Z,15.83
2019-02-23T08:59:51.230Z,14.10
2019-02-23T09:02:19.293Z,15.77
2019-02-23T09:04:47.349Z,16.13
2019-02-23T09:07:15.409Z,12.90
2019-02-23T09:09:43.450Z,13.80
2019-02-23T09:12:11.530Z,18.40
2019-02-23T09:14:39.572Z,14.23
2019-02-23T09:17:07.645Z,15.67
2019-02-23T09:19:35.711Z,12.93
2019-02-23T09:22:03.759Z,12.87
2019-02-23T09:24:31.830Z,14.03
2019-02-23T09:26:59.884Z,15.50
2019-02-23T09:29:27.938Z,14.40
2019-02-23T09:31:56.002Z,16.40
2019-02-23T09:34:24.134Z,17.67
2019-02-23T09:36:52.228Z,15.47
2019-02-23T09:39:20.286Z,15.53
2019-02-23T09:41:48.334Z,14.13
2019-02-23T09:44:16.399Z,13.43
2019-02-23T09:46:44.445Z,13.20
2019-02-23T09:49:12.520Z,16.00
2019-02-23T09:51:41.498Z,12.83
2019-02-23T09:54:09.661Z,14.93
2019-02-23T09:56:37.727Z,13.00
2019-02-23T09:59:05.789Z,14.37
2019-02-23T10:01:33.843Z,15.13
2019-02-23T10:04:01.927Z,12.83
2019-02-23T10:06:29.995Z,13.10
2019-02-23T10:08:58.995Z,13.03
2019-02-23T10:11:27.053Z,13.93
2019-02-23T10:13:55.110Z,14.13
2019-02-23T10:16:23.185Z,13.50
2019-02-23T10:18:51.254Z,13.07
2019-02-23T10:21:19.319Z,14.23
2019-02-23T10:23:47.363Z,15.43
2019-02-23T10:26:15.410Z,13.43
2019-02-23T10:28:43.473Z,13.53
2019-02-23T10:31:11.522Z,12.43
2019-02-23T10:33:47.388Z,12.43
2019-02-23T10:36:09.365Z,14.80
2019-02-23T10:38:37.426Z,12.40
2019-02-23T10:41:05.477Z,11.90
2019-02-23T10:43:33.522Z,11.67
2019-02-23T10:46:01.584Z,13.70
2019-02-23T10:48:29.686Z,12.20
2019-02-23T10:50:57.830Z,12.53
2019-02-23T10:53:32.730Z,13.37
2019-02-23T10:55:55.658Z,14.83
2019-02-23T10:58:23.723Z,14.87
2019-02-23T11:00:51.766Z,12.57
2019-02-23T11:03:19.819Z,11.87
2019-02-23T11:05:47.914Z,13.40
2019-02-23T11:08:15.994Z,20.37
2019-02-23T11:10:44.038Z,12.53
2019-02-23T11:13:12.085Z,11.10
2019-02-23T11:15:40.149Z,11.73
2019-02-23T11:18:08.227Z,13.97
2019-02-23T11:20:36.751Z,11.30
2019-02-23T11:23:04.878Z,13.27
2019-02-23T11:25:32.947Z,11.50
2019-02-23T11:28:01.710Z,12.27
2019-02-23T11:30:29.902Z,12.10
2019-02-23T11:32:57.951Z,13.07
2019-02-23T11:35:25.999Z,12.07
2019-02-23T11:37:54.059Z,13.67
2019-02-23T11:40:23.522Z,12.77
2019-02-23T11:42:51.767Z,11.37
2019-02-23T11:45:19.814Z,14.43
2019-02-23T11:47:47.866Z,11.00
2019-02-23T11:50:15.933Z,12.37
2019-02-23T11:52:43.975Z,13.63
2019-02-23T11:55:12.126Z,13.30
2019-02-23T11:57:40.171Z,12.53
2019-02-23T12:00:09.795Z,13.73
2019-02-23T12:02:37.836Z,11.67
2019-02-23T12:05:06.050Z,13.10
2019-02-23T12:07:34.114Z,12.23
2019-02-23T12:10:02.179Z,12.47
2019-02-23T12:12:30.246Z,12.40
2019-02-23T12:14:58.294Z,14.57
2019-02-23T12:17:26.354Z,12.83
2019-02-23T12:19:55.373Z,14.63
2019-02-23T12:22:23.598Z,13.40
2019-02-23T12:24:51.685Z,13.07
2019-02-23T12:27:19.726Z,14.37
2019-02-23T12:29:48.401Z,11.47
2019-02-23T12:32:16.490Z,13.17
2019-02-23T12:34:44.542Z,16.27
2019-02-23T12:37:12.634Z,12.70
2019-02-23T12:39:40.730Z,12.80
2019-02-23T12:42:08.774Z,16.47
2019-02-23T12:44:37.010Z,14.00
2019-02-23T12:47:05.062Z,11.87
2019-02-23T12:49:33.102Z,14.07
2019-02-23T12:52:05.461Z,13.27
2019-02-23T12:54:33.530Z,12.87
2019-02-23T12:57:01.658Z,14.57
2019-02-23T12:59:29.718Z,14.07
2019-02-23T13:01:57.782Z,11.63
2019-02-23T13:04:25.930Z,13.50
2019-02-23T13:06:54.055Z,10.67
2019-02-23T13:09:23.615Z,10.10
2019-02-23T13:11:56.093Z,8.53
2019-02-23T13:14:34.762Z,11.17
2019-02-23T13:17:10.434Z,9.50
2019-02-23T13:19:56.394Z,8.80
2019-02-23T13:22:31.718Z,9.03
2019-02-23T13:25:10.314Z,8.60
2019-02-23T13:27:39.915Z,11.67
2019-02-23T13:30:12.546Z,10.30
2019-02-23T13:32:58.457Z,9.27
2019-02-23T13:35:44.286Z,8.83
2019-02-23T13:38:16.654Z,17.07
2019-02-23T13:41:02.703Z,10.00
2019-02-23T13:43:34.941Z,10.60
2019-02-23T13:46:16.343Z,9.83
2019-02-23T13:48:48.602Z,10.90
2019-02-23T13:51:18.818Z,12.80
2019-02-23T13:54:04.872Z,8.77
2019-02-23T13:56:40.492Z,12.40
2019-02-23T13:59:12.779Z,8.63
2019-02-23T14:01:59.140Z,8.60
2019-02-23T14:04:28.771Z,8.37
2019-02-23T14:06:58.354Z,9.07
2019-02-23T14:09:44.983Z,14.53
2019-02-23T14:12:27.578Z,9.40
2019-02-23T14:15:00.300Z,9.40
2019-02-23T14:17:35.926Z,9.27
2019-02-23T14:20:05.566Z,9.10
2019-02-23T14:22:35.174Z,8.60
2019-02-23T14:25:21.074Z,8.17
2019-02-23T14:27:59.658Z,8.83
2019-02-23T14:30:29.373Z,8.70
2019-02-23T14:33:15.238Z,8.03
2019-02-23T14:35:47.512Z,12.30
2019-02-23T14:38:23.002Z,8.10
2019-02-23T14:40:52.655Z,7.67
2019-02-23T14:43:28.156Z,8.47
2019-02-23T14:46:15.656Z,7.83
2019-02-23T14:48:51.252Z,9.47
2019-02-23T14:51:22.059Z,8.57
2019-02-23T14:53:51.925Z,7.33
2019-02-23T14:56:27.630Z,9.10
2019-02-23T14:58:57.221Z,8.07
2019-02-23T15:01:39.039Z,9.50
2019-02-23T15:04:17.616Z,8.77
2019-02-23T15:07:04.122Z,7.47
2019-02-23T15:09:39.587Z,10.90
2019-02-23T15:12:09.163Z,8.30
2019-02-23T15:14:38.778Z,9.23
2019-02-23T15:17:26.451Z,7.90
2019-02-23T15:20:01.780Z,9.10
2019-02-23T15:22:31.351Z,8.20
2019-02-23T15:25:18.981Z,9.20
2019-02-23T15:27:51.267Z,9.57
2019-02-23T15:30:23.740Z,8.50
2019-02-23T15:32:56.218Z,8.37
2019-02-23T15:35:28.689Z,7.30
2019-02-23T15:38:10.379Z,6.33
2019-02-23T15:40:46.197Z,10.27
2019-02-23T15:43:15.800Z,11.10
2019-02-23T15:46:00.262Z,9.37
2019-02-23T15:48:44.841Z,9.30
2019-02-23T15:51:13.705Z,12.83
2019-02-23T15:53:41.925Z,9.17
2019-02-23T15:56:10.051Z,7.73
2019-02-23T15:58:38.094Z,9.50
2019-02-23T16:01:06.161Z,8.47
2019-02-23T16:03:34.266Z,7.77
2019-02-23T16:06:02.322Z,8.07
2019-02-23T16:08:30.461Z,6.93
2019-02-23T16:10:58.518Z,7.40
2019-02-23T16:13:26.565Z,7.43
2019-02-23T16:15:54.606Z,7.80
2019-02-23T16:18:22.657Z,11.57
2019-02-23T16:20:50.723Z,10.73
2019-02-23T16:23:18.767Z,11.30
2019-02-23T16:25:46.823Z,14.87
2019-02-23T16:28:14.862Z,8.97
2019-02-23T16:30:42.907Z,9.60
2019-02-23T16:33:11.002Z,9.17
2019-02-23T16:35:39.142Z,7.77
2019-02-23T16:38:07.246Z,8.50
2019-02-23T16:40:35.291Z,8.70
2019-02-23T16:43:03.332Z,7.17
2019-02-23T16:45:31.399Z,11.07
2019-02-23T16:47:59.463Z,12.47
2019-02-23T16:50:27.531Z,9.27
2019-02-23T16:52:55.586Z,9.50
2019-02-23T16:55:23.663Z,10.37
2019-02-23T16:57:51.710Z,10.63
2019-02-23T17:00:19.822Z,9.00
2019-02-23T17:02:47.906Z,8.00
2019-02-23T17:05:15.977Z,9.97
2019-02-23T17:07:44.050Z,8.77
2019-02-23T17:10:12.169Z,9.83
2019-02-23T17:12:40.258Z,10.50
2019-02-23T17:15:10.601Z,10.60
2019-02-23T17:17:38.106Z,10.13
2019-02-23T17:20:06.194Z,9.30
2019-02-23T17:22:34.306Z,10.63
2019-02-23T17:25:02.364Z,9.10
2019-02-23T17:27:36.863Z,8.77
2019-02-23T17:30:00.532Z,9.77
2019-02-23T17:32:28.594Z,9.20
2019-02-23T17:34:56.663Z,11.53
2019-02-23T17:37:24.710Z,9.90
2019-02-23T17:39:53.649Z,8.43
2019-02-23T17:42:28.068Z,11.27
2019-02-23T17:44:51.541Z,10.17
2019-02-23T17:47:19.612Z,10.23
2019-02-23T17:49:47.863Z,12.63
2019-02-23T17:52:18.715Z,11.57
2019-02-23T17:54:46.766Z,8.73
2019-02-23T17:57:14.813Z,10.60
2019-02-23T17:59:42.858Z,12.57
2019-02-23T18:02:11.265Z,9.23
2019-02-23T18:04:39.729Z,10.60
2019-02-23T18:07:11.046Z,10.30
2019-02-23T18:09:39.134Z,23.67
2019-02-23T18:12:07.185Z,11.50
2019-02-23T18:14:35.398Z,11.83
2019-02-23T18:17:03.473Z,12.67
2019-02-23T18:19:31.523Z,11.47
2019-02-23T18:21:59.586Z,11.57
2019-02-23T18:24:27.643Z,10.70
2019-02-23T18:26:55.691Z,11.30
2019-02-23T18:29:23.756Z,12.23
2019-02-23T18:31:51.805Z,15.07
2019-02-23T18:34:19.861Z,13.17
2019-02-23T18:36:47.902Z,13.70
2019-02-23T18:39:17.669Z,11.13
2019-02-23T18:41:46.645Z,14.10
2019-02-23T18:44:14.747Z,14.27
2019-02-23T18:46:42.814Z,10.70
2019-02-23T18:49:10.860Z,12.67
2019-02-23T18:51:38.906Z,15.37
2019-02-23T18:54:07.032Z,12.40
2019-02-23T18:56:35.090Z,14.00
2019-02-23T18:59:03.140Z,13.90
2019-02-23T19:01:31.218Z,15.10
2019-02-23T19:03:59.255Z,13.47
2019-02-23T19:06:27.297Z,13.67
2019-02-23T19:08:55.361Z,12.40
2019-02-23T19:11:23.459Z,18.77
2019-02-23T19:13:51.554Z,15.20
2019-02-23T19:16:19.599Z,13.83
2019-02-23T19:18:47.673Z,15.33
2019-02-23T19:21:15.719Z,15.60
2019-02-23T19:23:43.765Z,12.33
2019-02-23T19:26:11.832Z,18.63
2019-02-23T19:28:43.189Z,14.90
2019-02-23T19:31:09.673Z,16.53
2019-02-23T19:33:37.738Z,13.20
2019-02-23T19:36:05.804Z,15.30
2019-02-23T19:38:33.855Z,21.37
2019-02-23T19:41:01.921Z,15.10
2019-02-23T19:43:29.989Z,12.97
2019-02-23T19:45:58.046Z,16.63
2019-02-23T19:48:26.126Z,15.97
2019-02-23T19:50:55.729Z,16.53
2019-02-23T19:53:23.818Z,15.83
2019-02-23T19:55:51.979Z,14.87
2019-02-23T19:58:20.030Z,16.43
2019-02-23T20:00:48.086Z,21.57
2019-02-23T20:03:16.165Z,16.67
2019-02-23T20:05:44.288Z,13.73
2019-02-23T20:08:12.340Z,15.13
2019-02-23T20:10:40.386Z,14.57
2019-02-23T20:13:08.452Z,15.77
2019-02-23T20:15:36.527Z,15.17
2019-02-23T20:18:05.881Z,11.80
2019-02-23T20:20:34.133Z,12.70
2019-02-23T20:23:02.214Z,16.50
2019-02-23T20:25:30.268Z,17.70
2019-02-23T20:27:58.333Z,13.27
2019-02-23T20:30:26.375Z,14.67
2019-02-23T20:32:54.451Z,14.13
2019-02-23T20:35:22.574Z,14.00
2019-02-23T20:37:50.675Z,13.87
2019-02-23T20:40:18.731Z,17.73
2019-02-23T20:42:46.818Z,12.10
2019-02-23T20:45:14.904Z,13.60
2019-02-23T20:47:43.097Z,16.97
2019-02-23T20:50:11.235Z,16.80
2019-02-23T20:52:39.298Z,14.57
2019-02-23T20:55:08.032Z,13.00
2019-02-23T20:57:36.094Z,12.40
2019-02-23T21:00:08.146Z,14.93
2019-02-23T21:02:36.280Z,13.80
2019-02-23T21:05:05.623Z,13.23
2019-02-23T21:07:33.697Z,13.47
2019-02-23T21:10:01.811Z,15.07
2019-02-23T21:12:29.874Z,15.30
2019-02-23T21:14:57.927Z,12.73
2019-02-23T21:17:26.043Z,14.00
2019-02-23T21:19:54.088Z,14.00
2019-02-23T21:22:22.130Z,17.47
2019-02-23T21:24:50.193Z,13.00
2019-02-23T21:27:18.244Z,13.17
2019-02-23T21:29:46.311Z,12.70
2019-02-23T21:32:14.402Z,14.60
2019-02-23T21:34:42.473Z,15.80
2019-02-23T21:37:10.535Z,11.90
2019-02-23T21:39:40.376Z,14.57
2019-02-23T21:42:08.362Z,14.17
2019-02-23T21:44:36.410Z,16.60
2019-02-23T21:47:04.487Z,13.83
2019-02-23T21:49:32.538Z,11.73
2019-02-23T21:52:04.897Z,13.10
2019-02-23T21:54:32.950Z,17.03
2019-02-23T21:57:01.002Z,13.77
2019-02-23T21:59:29.055Z,11.73
2019-02-23T22:01:57.122Z,14.27
2019-02-23T22:04:25.170Z,14.70
2019-02-23T22:06:53.226Z,13.37
2019-02-23T22:09:21.289Z,12.37
2019-02-23T22:11:49.339Z,11.23
2019-02-23T22:14:17.515Z,12.77
2019-02-23T22:16:45.580Z,14.33
2019-02-23T22:19:13.650Z,12.27
2019-02-23T22:21:41.699Z,11.43
2019-02-23T22:24:09.758Z,12.00
2019-02-23T22:26:37.848Z,13.43
2019-02-23T22:29:05.907Z,14.67
2019-02-23T22:31:53.359Z,13.20
2019-02-23T22:34:21.424Z,12.77
2019-02-23T22:36:49.478Z,13.93
2019-02-23T22:39:17.538Z,12.70
2019-02-23T22:41:49.643Z,13.27
2019-02-23T22:44:16.164Z,13.03
2019-02-23T22:46:44.329Z,10.33
2019-02-23T22:49:12.392Z,10.97
2019-02-23T22:51:44.571Z,12.47
2019-02-23T22:54:12.609Z,14.07
2019-02-23T22:56:40.670Z,14.27
2019-02-23T22:59:08.726Z,10.87
2019-02-23T23:01:36.779Z,14.77
2019-02-23T23:04:04.902Z,13.47
2019-02-23T23:06:32.950Z,11.23
2019-02-23T23:09:01.025Z,13.17
2019-02-23T23:11:29.078Z,14.57
2019-02-23T23:13:57.138Z,12.93
2019-02-23T23:16:25.186Z,12.40
2019-02-23T23:18:53.244Z,11.40
2019-02-23T23:21:21.314Z,12.17
2019-02-23T23:23:49.364Z,13.37
2019-02-23T23:26:17.429Z,12.97
2019-02-23T23:28:45.486Z,10.40
2019-02-23T23:31:13.542Z,12.30
2019-02-23T23:33:41.627Z,12.27
2019-02-23T23:36:09.674Z,10.80
2019-02-23T23:38:37.738Z,14.83
2019-02-23T23:41:05.807Z,10.93
2019-02-23T23:43:33.863Z,12.57
2019-02-23T23:46:01.915Z,11.53
2019-02-23T23:48:29.989Z,11.27
2019-02-23T23:50:58.130Z,11.77
2019-02-23T23:53:26.188Z,12.13
2019-02-23T23:55:54.246Z,11.60
2019-02-23T23:58:22.302Z,11.13
